Time;durP1;ratioP1;P1;durP2;ratioP2;P2;SDS_P1;SDS_P2;PMS_P1;PMS_P2;Temp;Humidity;BMP_temperature;BMP_pressure;BME280_temperature;BME280_humidity;BME280_pressure;Samples;Min_cycle;Max_cycle;Signal;HPM_P1;HPM_P2
2023/06/14 00:02:19;;;;;;;4.47;4.07;;;;;;;16.00;83.90;99739.06;5003828;28;20275;-76
2023/06/14 00:04:45;;;;;;;5.90;4.27;;;;;;;15.97;83.39;99739.16;4983405;28;20218;-76
2023/06/14 00:07:13;;;;;;;5.43;4.47;;;;;;;15.91;83.39;99747.25;5004768;28;20195;-76
2023/06/14 00:09:39;;;;;;;9.47;4.80;;;;;;;15.84;82.99;99744.84;5003134;28;20235;-75
2023/06/14 00:12:06;;;;;;;15.03;5.40;;;;;;;15.75;82.34;99747.84;4984524;28;20211;-76
2023/06/14 00:14:31;;;;;;;21.80;6.97;;;;;;;15.66;81.26;99740.34;4987857;28;20187;-76
2023/06/14 00:17:03;;;;;;;11.40;5.47;;;;;;;15.54;80.72;99741.69;5103066;27;20589;-77
2023/06/14 00:19:30;;;;;;;12.53;5.93;;;;;;;15.44;80.67;99748.16;5100463;28;20215;-78
2023/06/14 00:21:56;;;;;;;11.30;5.07;;;;;;;15.35;80.89;99738.94;5099803;28;20195;-78
2023/06/14 00:24:22;;;;;;;15.43;5.07;;;;;;;15.30;80.98;99738.25;5102541;28;20273;-77
2023/06/14 00:26:47;;;;;;;7.17;5.20;;;;;;;15.24;80.70;99740.16;5098516;28;20274;-77
2023/06/14 00:29:12;;;;;;;11.80;4.63;;;;;;;15.20;80.71;99737.75;5099363;28;20799;-77
2023/06/14 00:31:37;;;;;;;8.03;4.47;;;;;;;15.16;80.66;99734.41;5093813;28;20241;-78
2023/06/14 00:34:03;;;;;;;7.10;4.67;;;;;;;15.16;81.16;99730.94;5101406;28;20729;-77
2023/06/14 00:36:28;;;;;;;7.77;4.73;;;;;;;15.15;80.73;99724.88;5098965;28;20252;-77
2023/06/14 00:38:53;;;;;;;7.40;4.57;;;;;;;15.17;81.50;99730.91;5096028;28;20304;-78
2023/06/14 00:41:19;;;;;;;7.57;4.70;;;;;;;15.18;82.43;99724.78;5098444;28;21172;-78
2023/06/14 00:43:44;;;;;;;9.50;5.13;;;;;;;15.19;81.93;99731.69;5101996;28;20211;-77
2023/06/14 00:46:09;;;;;;;7.97;4.47;;;;;;;15.19;81.73;99733.44;5096179;27;20187;-79
2023/06/14 00:48:37;;;;;;;9.17;4.67;;;;;;;15.19;81.99;99734.28;5100512;27;20233;-79
2023/06/14 00:51:03;;;;;;;10.07;4.73;;;;;;;15.18;82.05;99724.78;5095141;28;20914;-78
2023/06/14 00:53:30;;;;;;;8.20;5.30;;;;;;;15.15;82.38;99732.69;5089752;28;20193;-77
2023/06/14 00:55:56;;;;;;;6.20;4.43;;;;;;;15.13;83.16;99738.84;5103206;28;20235;-78
2023/06/14 00:58:22;;;;;;;11.10;5.10;;;;;;;15.07;83.24;99732.13;5098241;28;20278;-78
2023/06/14 01:00:48;;;;;;;10.73;5.03;;;;;;;15.03;82.92;99736.59;5103904;27;20203;-77
2023/06/14 01:03:18;;;;;;;8.23;5.20;;;;;;;14.97;83.57;99723.81;5110807;28;20194;-77
2023/06/14 01:05:44;;;;;;;7.37;4.63;;;;;;;14.90;83.62;99730.97;5094273;28;20186;-78
2023/06/14 01:08:28;;;;;;;8.50;4.87;;;;;;;14.87;83.82;99730.22;5097008;28;20248;-78
2023/06/14 01:11:02;;;;;;;7.50;4.57;;;;;;;14.82;84.78;99730.41;5101527;28;20178;-78
2023/06/14 01:13:30;;;;;;;6.43;4.83;;;;;;;14.78;84.52;99734.00;5110471;28;20194;-77
2023/06/14 01:15:56;;;;;;;5.80;4.60;;;;;;;14.75;84.47;99734.97;5100951;28;20209;-77
2023/06/14 01:18:23;;;;;;;5.10;4.60;;;;;;;14.72;84.30;99739.47;5107393;28;20257;-77
2023/06/14 01:20:49;;;;;;;5.73;4.97;;;;;;;14.72;84.99;99742.06;5088167;28;20548;-77
2023/06/14 01:23:32;;;;;;;6.60;4.70;;;;;;;14.67;85.07;99739.56;5096156;28;20256;-78
2023/06/14 01:25:59;;;;;;;8.80;5.27;;;;;;;14.61;85.09;99747.59;5100763;27;20177;-78
2023/06/14 01:28:26;;;;;;;6.23;4.93;;;;;;;14.54;84.73;99739.16;5085384;28;20182;-77
2023/06/14 01:30:55;;;;;;;5.80;4.70;;;;;;;14.47;84.61;99740.25;5080272;28;21392;-77
2023/06/14 01:33:23;;;;;;;5.57;4.73;;;;;;;14.41;84.34;99741.31;5086279;28;20184;-78
2023/06/14 01:35:51;;;;;;;5.17;4.63;;;;;;;14.33;84.20;99738.97;5082470;28;20285;-78
2023/06/14 01:38:21;;;;;;;5.27;4.77;;;;;;;14.24;84.65;99739.28;5082516;28;20194;-77
2023/06/14 01:40:47;;;;;;;6.73;4.80;;;;;;;14.17;84.74;99743.84;5083471;28;20225;-77
2023/06/14 01:43:14;;;;;;;5.40;4.90;;;;;;;14.09;85.08;99745.81;5082283;28;20190;-78
2023/06/14 01:45:41;;;;;;;4.83;4.40;;;;;;;14.05;85.05;99739.03;5087556;28;20194;-77
2023/06/14 01:48:07;;;;;;;5.80;4.90;;;;;;;13.99;85.22;99747.03;5086208;28;20219;-77
2023/06/14 01:50:32;;;;;;;7.60;5.27;;;;;;;13.94;84.89;99746.31;5081469;28;20239;-77
2023/06/14 01:52:58;;;;;;;5.87;4.77;;;;;;;13.90;85.42;99745.56;5083487;28;20178;-77
2023/06/14 01:55:24;;;;;;;8.53;4.93;;;;;;;13.87;86.11;99749.13;5082172;27;20208;-77
2023/06/14 01:57:50;;;;;;;5.77;4.70;;;;;;;13.84;86.08;99740.56;5086849;27;20234;-79
2023/06/14 02:00:18;;;;;;;5.50;4.90;;;;;;;13.80;86.36;99752.81;5084847;28;20211;-77
2023/06/14 02:02:43;;;;;;;5.00;4.60;;;;;;;13.77;86.47;99749.44;5083548;28;20335;-77
2023/06/14 02:05:10;;;;;;;6.80;5.00;;;;;;;13.75;86.39;99746.03;5080479;28;20288;-77
2023/06/14 02:07:35;;;;;;;6.90;5.30;;;;;;;13.70;86.25;99744.44;5081887;28;20197;-77
2023/06/14 02:10:01;;;;;;;5.20;4.70;;;;;;;13.68;85.64;99746.25;5080397;28;20218;-77
2023/06/14 02:12:26;;;;;;;5.77;5.27;;;;;;;13.64;85.88;99751.56;5081120;28;20181;-77
2023/06/14 02:14:52;;;;;;;5.73;4.80;;;;;;;13.61;86.11;99749.09;5079071;28;20190;-77
2023/06/14 02:17:17;;;;;;;5.63;5.03;;;;;;;13.56;86.16;99750.06;5082381;28;20186;-78
2023/06/14 02:19:43;;;;;;;5.10;4.70;;;;;;;13.54;86.34;99746.66;5080835;28;20211;-78
2023/06/14 02:22:08;;;;;;;5.13;4.63;;;;;;;13.51;85.94;99748.50;5082001;28;20182;-78
2023/06/14 02:24:33;;;;;;;4.60;4.20;;;;;;;13.49;86.07;99748.53;5087816;28;20193;-77
2023/06/14 02:26:59;;;;;;;5.17;4.77;;;;;;;13.46;86.29;99747.78;5090830;28;20974;-77
2023/06/14 02:29:25;;;;;;;5.10;4.70;;;;;;;13.43;86.22;99747.84;5084614;28;20218;-79
2023/06/14 02:31:50;;;;;;;5.37;4.27;;;;;;;13.40;86.34;99741.00;5081440;28;20290;-78
2023/06/14 02:34:20;;;;;;;5.33;4.83;;;;;;;13.38;86.04;99745.38;5085217;28;20185;-76
2023/06/14 02:36:45;;;;;;;4.80;4.40;;;;;;;13.36;86.66;99752.34;5077880;28;20543;-78
2023/06/14 02:39:11;;;;;;;5.83;5.03;;;;;;;13.31;86.59;99755.09;5078522;28;20211;-78
2023/06/14 02:41:36;;;;;;;4.63;4.33;;;;;;;13.29;86.85;99758.63;5078029;28;20223;-78
2023/06/14 02:44:02;;;;;;;6.00;4.30;;;;;;;13.25;86.86;99758.72;5082983;28;21032;-78
2023/06/14 02:46:27;;;;;;;4.83;4.43;;;;;;;13.22;86.98;99764.00;5080201;28;20242;-78
2023/06/14 02:48:52;;;;;;;5.73;4.73;;;;;;;13.18;86.98;99766.72;5085122;28;20782;-79
2023/06/14 02:51:18;;;;;;;4.90;4.23;;;;;;;13.18;86.64;99762.38;5090039;28;20245;-78
2023/06/14 02:53:43;;;;;;;4.87;4.47;;;;;;;13.18;86.69;99762.38;5083874;28;20237;-77
2023/06/14 02:56:09;;;;;;;6.43;4.67;;;;;;;13.19;86.76;99761.47;5093052;28;20209;-77
2023/06/14 02:58:36;;;;;;;5.07;4.57;;;;;;;13.21;86.83;99766.66;5085060;28;20197;-77
2023/06/14 03:01:03;;;;;;;5.07;4.50;;;;;;;13.23;87.34;99764.88;5081622;28;20229;-77
2023/06/14 03:03:29;;;;;;;6.17;4.30;;;;;;;13.25;87.32;99769.13;5087276;28;20940;-78
2023/06/14 03:05:55;;;;;;;8.83;5.33;;;;;;;13.41;83.46;99768.72;5090322;28;20218;-76
2023/06/14 03:08:20;;;;;;;7.07;5.47;;;;;;;13.46;84.25;99766.81;5085524;28;20287;-78
2023/06/14 03:10:46;;;;;;;5.30;4.80;;;;;;;13.65;84.07;99774.94;5085095;28;20941;-78
2023/06/14 03:13:15;;;;;;;6.10;4.77;;;;;;;13.67;84.49;99780.94;5072006;28;20187;-78
2023/06/14 03:15:42;;;;;;;5.00;4.60;;;;;;;13.70;85.26;99791.22;5089115;28;20233;-78
2023/06/14 03:18:09;;;;;;;5.13;4.70;;;;;;;13.73;85.57;99785.09;5083943;28;20193;-77
2023/06/14 03:20:35;;;;;;;5.57;4.87;;;;;;;13.73;85.40;99787.72;5086117;28;20201;-78
2023/06/14 03:23:02;;;;;;;4.57;4.17;;;;;;;13.72;84.42;99792.03;5083458;28;20189;-78
2023/06/14 03:25:29;;;;;;;4.70;4.20;;;;;;;13.72;84.31;99789.44;5084743;28;20189;-77
2023/06/14 03:27:57;;;;;;;4.73;4.13;;;;;;;13.75;84.18;99798.91;5093104;28;20195;-78
2023/06/14 03:30:23;;;;;;;4.67;4.27;;;;;;;13.77;84.41;99801.47;5076232;28;20212;-78
2023/06/14 03:32:48;;;;;;;4.73;4.33;;;;;;;13.77;83.97;99796.25;5075958;28;20300;-77
2023/06/14 03:35:17;;;;;;;4.73;4.33;;;;;;;13.74;81.75;99799.81;5081514;28;20234;-77
2023/06/14 03:37:45;;;;;;;4.60;4.20;;;;;;;13.72;81.19;99805.03;5088560;28;20207;-77
2023/06/14 03:40:13;;;;;;;6.53;4.87;;;;;;;13.71;79.05;99808.53;5087029;28;20218;-78
2023/06/14 03:42:39;;;;;;;5.47;4.97;;;;;;;13.65;78.87;99802.66;5075424;28;20185;-78
2023/06/14 03:45:06;;;;;;;5.20;4.70;;;;;;;13.67;79.08;99806.09;5087141;28;20173;-77
2023/06/14 03:47:31;;;;;;;5.00;4.50;;;;;;;13.71;79.26;99808.53;5084205;28;20198;-77
2023/06/14 03:49:57;;;;;;;5.57;4.43;;;;;;;13.78;78.90;99810.97;5077657;28;20231;-77
2023/06/14 03:52:23;;;;;;;6.07;4.67;;;;;;;13.81;78.91;99811.72;5082694;28;20269;-78
2023/06/14 03:54:49;;;;;;;8.07;5.07;;;;;;;13.98;78.93;99815.56;5083183;28;20181;-76
2023/06/14 03:57:14;;;;;;;6.93;5.23;;;;;;;14.20;79.45;99817.50;5084474;28;20201;-76
2023/06/14 03:59:41;;;;;;;5.40;4.27;;;;;;;14.39;80.02;99822.97;5082418;28;20289;-75
2023/06/14 04:02:06;;;;;;;5.03;4.60;;;;;;;14.60;80.10;99824.84;5080105;28;20197;-77
2023/06/14 04:04:32;;;;;;;6.67;4.80;;;;;;;14.62;79.79;99832.63;5086731;28;20239;-74
2023/06/14 04:07:00;;;;;;;5.40;4.80;;;;;;;14.68;79.88;99836.81;5080476;28;20192;-76
2023/06/14 04:09:26;;;;;;;6.43;4.97;;;;;;;14.71;79.12;99827.16;5081020;28;20223;-75
2023/06/14 04:11:52;;;;;;;7.90;5.23;;;;;;;14.86;79.22;99833.59;5083297;28;22347;-75
2023/06/14 04:14:19;;;;;;;5.87;5.23;;;;;;;14.85;78.53;99834.50;5072793;28;20182;-76
2023/06/14 04:16:46;;;;;;;7.27;4.80;;;;;;;14.86;78.06;99841.41;5077531;28;20602;-75
2023/06/14 04:19:11;;;;;;;5.40;4.80;;;;;;;15.00;78.00;99833.13;5081314;28;20234;-75
2023/06/14 04:21:36;;;;;;;5.70;4.77;;;;;;;15.24;77.90;99844.44;5078072;28;20669;-76
2023/06/14 04:24:02;;;;;;;4.80;4.40;;;;;;;15.35;77.13;99846.66;5081703;28;20612;-76
2023/06/14 04:26:29;;;;;;;4.83;4.37;;;;;;;15.36;77.03;99850.09;5084166;28;20183;-75
2023/06/14 04:28:56;;;;;;;7.10;4.90;;;;;;;15.34;77.14;99854.56;5091574;28;20230;-76
2023/06/14 04:31:24;;;;;;;5.20;4.77;;;;;;;15.34;77.13;99851.94;5082232;28;20691;-76
2023/06/14 04:33:52;;;;;;;6.33;5.00;;;;;;;15.36;77.17;99856.19;5076465;28;20192;-76
2023/06/14 04:36:18;;;;;;;5.10;4.70;;;;;;;15.44;77.18;99858.53;5093960;28;20201;-75
2023/06/14 04:38:46;;;;;;;5.73;5.20;;;;;;;15.66;76.75;99857.72;5095342;28;20256;-75
2023/06/14 04:41:11;;;;;;;8.73;4.83;;;;;;;16.11;75.74;99858.69;5091528;28;20205;-76
2023/06/14 04:43:37;;;;;;;5.60;5.07;;;;;;;16.56;73.63;99862.16;5078333;28;20307;-74
2023/06/14 04:46:10;;;;;;;5.10;4.60;;;;;;;17.08;73.20;99863.53;5087533;28;22398;-75
2023/06/14 04:48:40;;;;;;;5.60;4.90;;;;;;;17.19;71.66;99861.28;5087268;28;20186;-76
2023/06/14 04:51:06;;;;;;;5.50;4.50;;;;;;;17.68;71.19;99861.75;5091466;28;20200;-75
2023/06/14 04:53:31;;;;;;;6.67;4.97;;;;;;;17.87;70.51;99868.75;5080285;28;20196;-76
2023/06/14 04:55:57;;;;;;;8.07;5.10;;;;;;;17.88;70.16;99864.34;5080748;28;20678;-76
2023/06/14 04:58:22;;;;;;;7.37;5.03;;;;;;;17.90;70.08;99881.72;5095936;28;20667;-76
2023/06/14 05:00:48;;;;;;;5.60;4.80;;;;;;;18.28;69.69;99876.47;5081846;28;20206;-77
2023/06/14 05:03:13;;;;;;;5.67;5.00;;;;;;;18.31;69.51;99882.47;5086229;28;20199;-76
2023/06/14 05:05:40;;;;;;;8.33;5.10;;;;;;;18.42;68.58;99883.66;5091651;28;20713;-75
2023/06/14 05:08:06;;;;;;;6.07;5.47;;;;;;;18.78;68.46;99891.56;5083560;28;20189;-75
2023/06/14 05:10:31;;;;;;;5.20;4.57;;;;;;;18.77;68.46;99882.88;5086075;28;20307;-76
2023/06/14 05:12:56;;;;;;;5.43;4.90;;;;;;;18.93;68.14;99885.56;5086219;28;20182;-76
2023/06/14 05:15:25;;;;;;;6.30;5.60;;;;;;;19.10;68.53;99879.50;5088029;28;20212;-75
2023/06/14 05:17:54;;;;;;;4.97;4.47;;;;;;;19.63;67.17;99885.50;5083919;28;20272;-75
2023/06/14 05:20:20;;;;;;;5.20;4.70;;;;;;;19.45;67.18;99876.81;5080378;28;20917;-76
2023/06/14 05:22:46;;;;;;;6.47;4.97;;;;;;;19.77;67.06;99883.91;5086459;28;20196;-75
2023/06/14 05:25:11;;;;;;;5.77;5.10;;;;;;;19.08;67.71;99891.84;5084673;28;20298;-75
2023/06/14 05:27:37;;;;;;;5.77;5.10;;;;;;;19.73;66.56;99899.00;5078377;28;20283;-75
2023/06/14 05:30:03;;;;;;;9.73;5.47;;;;;;;19.96;67.03;99891.66;5081767;28;21020;-76
2023/06/14 05:32:29;;;;;;;6.60;4.77;;;;;;;20.10;66.37;99893.56;5087128;28;20276;-76
2023/06/14 05:34:55;;;;;;;5.57;4.97;;;;;;;19.55;66.92;99895.53;5094063;28;20192;-77
2023/06/14 05:37:20;;;;;;;7.03;5.53;;;;;;;19.92;66.27;99905.88;5084679;28;20196;-76
2023/06/14 05:39:45;;;;;;;6.17;5.03;;;;;;;19.99;65.65;99903.78;5091451;28;20292;-76
2023/06/14 05:42:11;;;;;;;5.53;4.87;;;;;;;19.77;66.98;99910.16;5085159;28;20217;-75
2023/06/14 05:44:36;;;;;;;5.87;5.03;;;;;;;20.17;65.84;99915.91;5087469;28;20193;-75
2023/06/14 05:47:01;;;;;;;5.33;4.93;;;;;;;20.59;65.56;99910.09;5088866;28;20189;-76
2023/06/14 05:49:27;;;;;;;8.30;5.13;;;;;;;21.20;63.30;99913.63;5083267;28;20216;-74
2023/06/14 05:51:52;;;;;;;8.17;5.20;;;;;;;20.92;64.33;99910.00;5083519;28;20725;-76
2023/06/14 05:54:17;;;;;;;6.77;5.27;;;;;;;21.02;63.90;99913.78;5090587;28;20196;-75
2023/06/14 05:56:43;;;;;;;5.80;4.83;;;;;;;20.80;63.58;99903.66;5086588;28;20212;-75
2023/06/14 05:59:08;;;;;;;10.37;5.23;;;;;;;20.87;63.67;99914.66;5095769;28;20205;-76
2023/06/14 06:01:36;;;;;;;10.70;5.63;;;;;;;20.05;64.83;99920.03;5073776;28;20261;-75
2023/06/14 06:04:02;;;;;;;8.27;4.93;;;;;;;19.82;66.43;99917.78;5072274;28;20204;-77
2023/06/14 06:06:28;;;;;;;8.97;5.30;;;;;;;19.82;65.49;99923.03;5074705;28;20185;-76
2023/06/14 06:08:53;;;;;;;7.13;5.10;;;;;;;19.47;66.58;99922.19;5075340;28;20239;-74
2023/06/14 06:11:18;;;;;;;7.17;5.50;;;;;;;19.19;66.87;99928.03;5073019;28;20218;-76
2023/06/14 06:13:44;;;;;;;6.80;5.40;;;;;;;19.14;67.90;99925.59;5072785;28;20197;-76
2023/06/14 06:16:09;;;;;;;6.23;5.17;;;;;;;19.82;66.37;99920.41;5069877;28;20431;-77
2023/06/14 06:18:34;;;;;;;6.57;5.20;;;;;;;19.88;66.53;99930.63;5073526;28;20285;-75
2023/06/14 06:21:00;;;;;;;5.73;5.23;;;;;;;19.80;65.86;99938.91;5078388;28;20185;-76
2023/06/14 06:23:26;;;;;;;7.43;5.37;;;;;;;19.91;64.99;99931.31;5073398;28;20281;-75
2023/06/14 06:25:51;;;;;;;8.03;5.60;;;;;;;19.83;66.60;99922.94;5069289;28;20182;-75
2023/06/14 06:28:17;;;;;;;6.47;4.90;;;;;;;20.19;65.32;99927.19;5082101;28;20221;-74
2023/06/14 06:30:42;;;;;;;5.67;4.73;;;;;;;20.08;66.14;99930.38;5083666;28;20249;-75
2023/06/14 06:33:08;;;;;;;6.50;5.37;;;;;;;20.40;65.41;99927.78;5092248;28;20215;-75
2023/06/14 06:35:33;;;;;;;10.40;5.53;;;;;;;20.65;64.52;99936.88;5083739;28;20310;-75
2023/06/14 06:38:00;;;;;;;6.27;4.67;;;;;;;20.30;65.47;99931.84;5090101;28;20247;-75
2023/06/14 06:40:25;;;;;;;7.50;5.43;;;;;;;20.19;65.65;99932.44;5081764;28;20320;-75
2023/06/14 06:42:51;;;;;;;6.87;4.80;;;;;;;19.94;66.09;99944.28;5084526;28;20222;-75
2023/06/14 06:45:16;;;;;;;7.30;5.80;;;;;;;20.31;66.27;99940.56;5094624;28;20263;-74
2023/06/14 06:47:41;;;;;;;11.33;5.50;;;;;;;20.80;64.99;99943.09;5086223;28;20283;-76
2023/06/14 06:50:07;;;;;;;9.40;5.70;;;;;;;21.19;63.78;99945.28;5079274;28;20224;-76
2023/06/14 06:52:33;;;;;;;7.20;4.83;;;;;;;21.68;63.87;99950.28;5089323;28;20192;-75
2023/06/14 06:54:58;;;;;;;9.67;5.80;;;;;;;21.87;63.03;99942.06;5089093;28;20196;-75
2023/06/14 06:57:23;;;;;;;5.77;4.90;;;;;;;21.72;63.10;99954.41;5082653;28;20193;-75
2023/06/14 06:59:49;;;;;;;7.53;5.07;;;;;;;21.40;62.94;99943.19;5080750;28;20219;-76
2023/06/14 07:02:16;;;;;;;7.00;5.03;;;;;;;21.60;63.27;99944.63;5083417;28;20659;-76
2023/06/14 07:04:41;;;;;;;8.07;5.33;;;;;;;21.43;63.45;99950.88;5093882;28;20306;-74
2023/06/14 07:07:06;;;;;;;8.53;5.50;;;;;;;21.62;63.78;99950.66;5086185;28;20550;-76
2023/06/14 07:09:32;;;;;;;7.13;5.10;;;;;;;21.60;63.44;99961.28;5090655;28;20209;-76
2023/06/14 07:11:57;;;;;;;6.60;5.10;;;;;;;20.77;64.29;99961.69;5080675;28;20200;-75
2023/06/14 07:14:24;;;;;;;7.97;5.67;;;;;;;21.88;64.00;99956.94;5081861;28;20931;-76
2023/06/14 07:16:49;;;;;;;11.37;5.70;;;;;;;21.21;62.90;99961.81;5082484;28;20211;-76
2023/06/14 07:19:14;;;;;;;5.27;4.67;;;;;;;20.81;64.71;99964.97;5078661;28;20213;-76
2023/06/14 07:21:40;;;;;;;6.30;5.30;;;;;;;20.94;63.91;99971.25;5084219;28;20180;-76
2023/06/14 07:24:06;;;;;;;7.07;5.47;;;;;;;20.55;65.07;99972.53;5091074;28;20187;-75
2023/06/14 07:26:32;;;;;;;14.33;5.53;;;;;;;20.89;65.79;99973.28;5081066;28;20688;-75
2023/06/14 07:28:57;;;;;;;8.23;5.10;;;;;;;20.78;65.02;99970.44;5076494;28;20209;-76
2023/06/14 07:31:22;;;;;;;5.77;5.20;;;;;;;21.00;65.44;99972.69;5093463;28;20184;-75
2023/06/14 07:33:48;;;;;;;6.93;4.90;;;;;;;20.89;64.99;99980.31;5090605;28;20186;-75
2023/06/14 07:36:13;;;;;;;7.67;5.20;;;;;;;21.27;64.74;99988.63;5080187;28;20334;-75
2023/06/14 07:38:40;;;;;;;10.43;5.50;;;;;;;21.23;64.60;99988.91;5084109;28;20197;-76
2023/06/14 07:41:05;;;;;;;8.53;5.40;;;;;;;20.58;65.75;99982.88;5074692;28;20225;-75
2023/06/14 07:43:30;;;;;;;5.87;5.27;;;;;;;20.60;65.46;99982.78;5090990;27;20686;-76
2023/06/14 07:45:56;;;;;;;8.50;5.10;;;;;;;21.07;65.30;99981.91;5079595;28;20185;-76
2023/06/14 07:48:22;;;;;;;5.57;4.97;;;;;;;21.23;65.39;99981.88;5086346;28;20185;-76
2023/06/14 07:50:47;;;;;;;8.33;5.00;;;;;;;21.78;63.99;99993.53;5084715;28;20224;-75
2023/06/14 07:53:13;;;;;;;6.37;5.10;;;;;;;21.66;64.04;99980.28;5084396;28;20271;-76
2023/06/14 07:55:39;;;;;;;7.20;5.07;;;;;;;21.41;64.53;99987.81;5095550;28;20204;-74
2023/06/14 07:58:06;;;;;;;6.40;5.00;;;;;;;21.81;64.00;99982.00;5083231;28;20299;-74
2023/06/14 08:00:31;;;;;;;5.97;5.47;;;;;;;21.42;63.12;99986.88;5078973;28;20345;-74
2023/06/14 08:02:59;;;;;;;6.07;5.47;;;;;;;21.27;64.03;99986.00;5087809;28;20849;-75
2023/06/14 08:05:25;;;;;;;6.10;5.60;;;;;;;21.42;64.28;99988.66;5081611;28;20531;-75
2023/06/14 08:07:51;;;;;;;12.63;5.93;;;;;;;21.85;64.08;99970.34;5085325;28;20191;-77
2023/06/14 08:10:16;;;;;;;7.27;4.93;;;;;;;21.88;64.33;99987.72;5086842;28;20217;-75
2023/06/14 08:12:41;;;;;;;6.03;5.43;;;;;;;22.18;63.07;99990.22;5081670;28;20187;-74
2023/06/14 08:15:07;;;;;;;7.40;5.20;;;;;;;22.00;63.38;99988.78;5081233;28;20200;-75
2023/06/14 08:17:33;;;;;;;7.23;4.77;;;;;;;21.90;63.93;99986.69;5084193;28;20199;-75
2023/06/14 08:19:59;;;;;;;6.37;5.77;;;;;;;21.93;63.58;99994.41;5080819;28;20209;-76
2023/06/14 08:22:24;;;;;;;9.40;5.47;;;;;;;21.78;64.47;100000.59;5092240;28;20189;-75
2023/06/14 08:24:50;;;;;;;12.27;6.00;;;;;;;21.65;64.27;99982.06;5093140;28;20195;-76
2023/06/14 08:27:15;;;;;;;5.80;4.83;;;;;;;21.76;63.65;99995.44;5077203;28;20189;-76
2023/06/14 08:29:41;;;;;;;8.50;5.27;;;;;;;21.41;63.94;99997.50;5084108;28;20197;-76
2023/06/14 08:32:07;;;;;;;8.00;5.47;;;;;;;21.73;63.74;99987.72;5083737;28;20750;-75
2023/06/14 08:34:32;;;;;;;10.67;4.87;;;;;;;21.74;63.50;99992.06;5081918;28;20177;-76
2023/06/14 08:36:57;;;;;;;9.80;5.40;;;;;;;21.70;63.86;99992.34;5082235;28;20209;-76
2023/06/14 08:39:23;;;;;;;7.70;5.03;;;;;;;22.09;62.96;99985.56;5089212;28;20262;-75
2023/06/14 08:41:48;;;;;;;6.40;5.10;;;;;;;22.13;63.52;99978.28;5095542;28;20191;-75
2023/06/14 08:44:18;;;;;;;8.03;4.80;;;;;;;21.97;62.89;99975.78;5085380;28;20585;-76
2023/06/14 08:46:43;;;;;;;8.73;4.70;;;;;;;21.75;62.89;99984.97;5093099;28;20546;-75
2023/06/14 08:49:12;;;;;;;5.43;4.53;;;;;;;22.03;62.28;100005.22;5082065;28;20220;-75
2023/06/14 08:51:37;;;;;;;33.87;11.63;;;;;;;21.85;62.74;99987.91;5074390;28;20185;-76
2023/06/14 08:54:04;;;;;;;41.60;11.77;;;;;;;21.97;62.96;99992.41;5086653;28;20231;-75
2023/06/14 08:56:31;;;;;;;24.97;7.30;;;;;;;21.71;62.41;99992.22;5090622;28;20193;-76
2023/06/14 08:59:06;;;;;;;25.20;7.83;;;;;;;21.85;62.33;99978.22;5089462;28;20209;-76
2023/06/14 09:01:36;;;;;;;7.43;5.37;;;;;;;21.89;62.50;99984.97;5079772;28;20188;-75
2023/06/14 09:04:02;;;;;;;6.23;4.80;;;;;;;21.60;62.61;99999.94;5083459;28;20652;-76
2023/06/14 09:06:28;;;;;;;6.17;4.60;;;;;;;21.83;63.33;99979.25;5084368;28;20204;-76
2023/06/14 09:08:57;;;;;;;9.47;4.90;;;;;;;21.99;61.41;99993.19;5086458;28;20293;-76
2023/06/14 09:11:22;;;;;;;7.97;4.87;;;;;;;21.93;61.99;99983.88;5072002;28;20200;-76
2023/06/14 09:13:49;;;;;;;7.10;4.73;;;;;;;22.16;61.60;99991.28;5093952;28;20634;-75
2023/06/14 09:16:15;;;;;;;5.90;4.73;;;;;;;22.27;61.98;99983.53;5082161;28;20205;-76
2023/06/14 09:18:47;;;;;;;6.50;4.77;;;;;;;22.35;60.36;99991.84;5082667;28;20255;-76
2023/06/14 09:21:14;;;;;;;5.83;4.77;;;;;;;22.61;60.68;99983.25;5081100;28;20655;-76
2023/06/14 09:23:44;;;;;;;6.73;4.90;;;;;;;22.42;61.23;99986.19;5087264;28;20181;-76
2023/06/14 09:26:19;;;;;;;8.83;4.70;;;;;;;22.57;61.88;99997.56;5093232;28;20190;-76
2023/06/14 09:28:45;;;;;;;6.43;4.50;;;;;;;22.67;61.35;100001.28;5076766;28;20401;-77
2023/06/14 09:31:15;;;;;;;9.27;4.90;;;;;;;22.57;62.12;100002.84;5081970;28;20227;-75
2023/06/14 09:33:47;;;;;;;6.63;4.57;;;;;;;22.59;60.60;99980.69;5089014;28;20246;-76
2023/06/14 09:36:21;;;;;;;6.10;4.80;;;;;;;22.59;60.59;99993.03;5085407;28;20884;-76
2023/06/14 09:38:54;;;;;;;8.80;4.53;;;;;;;22.74;60.13;99994.69;5091333;28;20218;-76
2023/06/14 09:41:19;;;;;;;5.20;4.70;;;;;;;22.59;60.97;99988.59;5093322;27;20911;-76
2023/06/14 09:43:46;;;;;;;6.07;4.63;;;;;;;22.76;60.70;100000.72;5094663;28;20271;-77
2023/06/14 09:46:13;;;;;;;5.10;4.50;;;;;;;22.82;60.44;99999.47;5092635;27;20664;-77
2023/06/14 09:48:42;;;;;;;8.37;4.77;;;;;;;22.92;60.46;100007.59;5083607;28;20310;-77
2023/06/14 09:51:11;;;;;;;5.60;4.57;;;;;;;22.71;59.76;100013.34;5084820;28;20189;-76
2023/06/14 09:53:36;;;;;;;7.17;4.43;;;;;;;22.91;60.79;100004.13;5094752;28;20184;-77
2023/06/14 09:56:03;;;;;;;6.23;4.37;;;;;;;22.95;60.57;100003.00;5083045;28;20247;-76
2023/06/14 09:58:30;;;;;;;6.20;4.83;;;;;;;22.67;60.01;100004.78;5081215;28;20190;-76
2023/06/14 10:00:56;;;;;;;5.00;4.30;;;;;;;22.73;59.88;100014.09;5084666;28;20200;-76
2023/06/14 10:03:28;;;;;;;6.20;4.70;;;;;;;22.76;59.32;100006.00;5087340;28;20201;-76
2023/06/14 10:05:55;;;;;;;7.03;4.33;;;;;;;22.89;59.12;100011.28;5087589;28;20185;-77
2023/06/14 10:08:27;;;;;;;5.83;4.27;;;;;;;23.17;58.51;99998.09;5094537;28;20205;-76
2023/06/14 10:10:53;;;;;;;8.10;4.60;;;;;;;23.24;57.52;100002.88;5071741;28;20279;-76
2023/06/14 10:13:19;;;;;;;5.93;4.40;;;;;;;23.26;57.68;99998.34;5075899;28;20208;-76
2023/06/14 10:15:59;;;;;;;8.50;4.60;;;;;;;23.25;58.32;99995.78;5082953;28;20350;-75
2023/06/14 10:18:25;;;;;;;6.27;4.20;;;;;;;22.96;57.08;99995.91;5082500;28;20600;-76
2023/06/14 10:21:24;;;;;;;4.50;4.07;;;;;;;23.20;56.84;99990.84;5087425;28;20294;-77
2023/06/14 10:23:50;;;;;;;5.83;4.20;;;;;;;23.40;57.38;99992.13;5080214;28;20181;-76
2023/06/14 10:26:23;;;;;;;6.00;4.80;;;;;;;23.55;57.15;99992.03;5086090;28;20244;-75
2023/06/14 10:29:21;;;;;;;6.33;4.37;;;;;;;23.41;56.66;100000.91;5078047;28;20208;-75
2023/06/14 10:31:48;;;;;;;6.83;4.20;;;;;;;23.31;54.80;99992.75;5078427;28;20212;-75
2023/06/14 10:34:26;;;;;;;5.97;4.20;;;;;;;23.18;53.81;99997.13;5084182;28;20195;-75
2023/06/14 10:37:06;;;;;;;5.33;4.27;;;;;;;23.39;56.00;99992.25;5079493;28;20698;-75
2023/06/14 10:39:35;;;;;;;10.07;4.47;;;;;;;23.50;54.88;99995.00;5079791;28;20229;-75
2023/06/14 10:42:04;;;;;;;7.07;4.27;;;;;;;23.37;55.94;99994.13;5083911;28;20182;-75
2023/06/14 10:44:29;;;;;;;4.70;4.20;;;;;;;23.58;55.83;99995.34;5080612;28;20185;-77
2023/06/14 10:46:57;;;;;;;6.80;4.00;;;;;;;23.49;53.83;99992.47;5084021;28;20187;-76
2023/06/14 10:49:43;;;;;;;13.83;5.43;;;;;;;23.78;54.64;99993.09;5084027;28;20209;-77
2023/06/14 10:52:19;;;;;;;8.93;4.70;;;;;;;23.89;54.58;99995.88;5081851;28;20186;-76
2023/06/14 10:55:04;;;;;;;4.07;3.57;;;;;;;23.97;54.07;99991.84;5083975;28;20183;-76
2023/06/14 10:57:33;;;;;;;5.10;4.60;;;;;;;24.16;54.29;99996.69;5080684;28;20240;-76
2023/06/14 11:00:00;;;;;;;5.53;4.30;;;;;;;24.19;54.53;99984.13;5098110;27;20823;-77
2023/06/14 11:03:03;;;;;;;3.63;3.33;;;;;;;24.81;54.75;99987.59;5085682;28;20196;-75
2023/06/14 11:05:28;;;;;;;6.07;4.20;;;;;;;24.15;54.05;99987.06;5082301;28;20211;-76
2023/06/14 11:08:28;;;;;;;6.67;4.40;;;;;;;23.98;53.70;99982.97;5080153;28;20295;-76
2023/06/14 11:10:56;;;;;;;5.87;4.00;;;;;;;24.10;54.13;99987.38;5071808;28;22047;-76
2023/06/14 11:13:25;;;;;;;5.83;4.00;;;;;;;24.13;53.81;99981.03;5078314;28;20196;-76
2023/06/14 11:15:52;;;;;;;4.80;4.23;;;;;;;24.16;53.59;99975.53;5081768;28;20238;-76
2023/06/14 11:18:18;;;;;;;8.87;4.80;;;;;;;24.75;52.96;99974.84;5080480;28;20189;-76
2023/06/14 11:20:46;;;;;;;11.13;4.47;;;;;;;24.73;52.83;99982.06;5086116;28;20208;-76
2023/06/14 11:23:11;;;;;;;9.70;4.63;;;;;;;24.53;53.47;99977.31;5079571;28;20220;-75
2023/06/14 11:25:36;;;;;;;5.53;4.03;;;;;;;24.85;52.96;99974.16;5080168;28;20675;-75
2023/06/14 11:28:02;;;;;;;8.73;4.47;;;;;;;25.17;52.28;99978.84;5077693;28;20203;-75
2023/06/14 11:30:27;;;;;;;7.43;4.73;;;;;;;24.95;52.80;99972.53;5083465;28;20590;-76
2023/06/14 11:32:54;;;;;;;4.87;4.23;;;;;;;24.94;51.77;99981.44;5083173;28;20194;-76